sensor_id;sensor_type;location;lat;lon;timestamp;pressure;altitude;pressure_sealevel;temperature
28305;BMP280;15569;42.652;23.040;2024-03-22T00:00:38;93008.97;;;5.91
28305;BMP280;15569;42.652;23.040;2024-03-22T00:03:04;93002.03;;;5.88
28305;BMP280;15569;42.652;23.040;2024-03-22T00:05:29;93009.53;;;5.89
28305;BMP280;15569;42.652;23.040;2024-03-22T00:07:55;92995.75;;;5.85
28305;BMP280;15569;42.652;23.040;2024-03-22T00:10:20;92996.47;;;5.76
28305;BMP280;15569;42.652;23.040;2024-03-22T00:12:45;93011.09;;;5.73
28305;BMP280;15569;42.652;23.040;2024-03-22T00:15:11;93005.31;;;5.67
28305;BMP280;15569;42.652;23.040;2024-03-22T00:17:36;93004.88;;;5.61
28305;BMP280;15569;42.652;23.040;2024-03-22T00:20:02;93002.75;;;5.60
28305;BMP280;15569;42.652;23.040;2024-03-22T00:22:27;92998.91;;;5.63
28305;BMP280;15569;42.652;23.040;2024-03-22T00:24:53;92989.97;;;5.60
28305;BMP280;15569;42.652;23.040;2024-03-22T00:27:18;93002.19;;;5.52
28305;BMP280;15569;42.652;23.040;2024-03-22T00:29:43;92998.47;;;5.57
28305;BMP280;15569;42.652;23.040;2024-03-22T00:32:09;92998.06;;;5.51
28305;BMP280;15569;42.652;23.040;2024-03-22T00:34:35;92997.34;;;5.50
28305;BMP280;15569;42.652;23.040;2024-03-22T00:37:00;93003.47;;;5.51
28305;BMP280;15569;42.652;23.040;2024-03-22T00:39:26;93005.72;;;5.45
28305;BMP280;15569;42.652;23.040;2024-03-22T00:41:51;92998.47;;;5.47
28305;BMP280;15569;42.652;23.040;2024-03-22T00:44:16;93008.81;;;5.31
28305;BMP280;15569;42.652;23.040;2024-03-22T00:46:42;93008.56;;;5.37
28305;BMP280;15569;42.652;23.040;2024-03-22T00:49:07;93002.31;;;5.44
28305;BMP280;15569;42.652;23.040;2024-03-22T00:51:33;93007.88;;;5.46
28305;BMP280;15569;42.652;23.040;2024-03-22T00:53:58;92998.47;;;5.37
28305;BMP280;15569;42.652;23.040;2024-03-22T00:56:23;92995.09;;;5.37
28305;BMP280;15569;42.652;23.040;2024-03-22T00:58:49;92996.63;;;5.40
28305;BMP280;15569;42.652;23.040;2024-03-22T01:01:14;92966.22;;;5.11
28305;BMP280;15569;42.652;23.040;2024-03-22T01:03:39;92993.53;;;5.34
28305;BMP280;15569;42.652;23.040;2024-03-22T01:06:05;92992.50;;;5.29
28305;BMP280;15569;42.652;23.040;2024-03-22T01:08:30;92991.94;;;5.21
28305;BMP280;15569;42.652;23.040;2024-03-22T01:10:56;92998.47;;;5.18
28305;BMP280;15569;42.652;23.040;2024-03-22T01:13:22;92994.47;;;5.29
28305;BMP280;15569;42.652;23.040;2024-03-22T01:15:47;92998.47;;;5.18
28305;BMP280;15569;42.652;23.040;2024-03-22T01:18:12;93001.56;;;5.15
28305;BMP280;15569;42.652;23.040;2024-03-22T01:20:38;93007.66;;;5.06
28305;BMP280;15569;42.652;23.040;2024-03-22T01:23:03;92993.75;;;5.00
28305;BMP280;15569;42.652;23.040;2024-03-22T01:25:29;93001.69;;;5.07
28305;BMP280;15569;42.652;23.040;2024-03-22T01:27:56;92990.50;;;5.01
28305;BMP280;15569;42.652;23.040;2024-03-22T01:30:21;93000.38;;;4.99
28305;BMP280;15569;42.652;23.040;2024-03-22T01:32:47;92977.81;;;4.85
28305;BMP280;15569;42.652;23.040;2024-03-22T01:35:12;92993.44;;;4.96
28305;BMP280;15569;42.652;23.040;2024-03-22T01:37:37;93003.31;;;4.84
28305;BMP280;15569;42.652;23.040;2024-03-22T01:40:03;92998.91;;;4.78
28305;BMP280;15569;42.652;23.040;2024-03-22T01:42:31;93004.59;;;4.83
28305;BMP280;15569;42.652;23.040;2024-03-22T01:44:57;92998.53;;;4.92
28305;BMP280;15569;42.652;23.040;2024-03-22T01:47:22;92999.53;;;4.96
28305;BMP280;15569;42.652;23.040;2024-03-22T01:49:51;93000.56;;;5.01
28305;BMP280;15569;42.652;23.040;2024-03-22T01:52:18;93002.78;;;4.95
28305;BMP280;15569;42.652;23.040;2024-03-22T01:54:44;92997.69;;;4.99
28305;BMP280;15569;42.652;23.040;2024-03-22T01:57:09;92989.88;;;4.93
28305;BMP280;15569;42.652;23.040;2024-03-22T01:59:35;93001.09;;;4.99
28305;BMP280;15569;42.652;23.040;2024-03-22T02:02:01;92985.06;;;4.92
28305;BMP280;15569;42.652;23.040;2024-03-22T02:04:28;92992.31;;;5.08
28305;BMP280;15569;42.652;23.040;2024-03-22T02:06:53;92977.31;;;5.15
28305;BMP280;15569;42.652;23.040;2024-03-22T02:09:19;92990.53;;;5.30
28305;BMP280;15569;42.652;23.040;2024-03-22T02:11:46;92986.44;;;5.38
28305;BMP280;15569;42.652;23.040;2024-03-22T02:14:12;92993.66;;;5.36
28305;BMP280;15569;42.652;23.040;2024-03-22T02:16:40;92996.63;;;5.30
28305;BMP280;15569;42.652;23.040;2024-03-22T02:19:08;92992.50;;;5.10
28305;BMP280;15569;42.652;23.040;2024-03-22T02:21:34;92992.63;;;5.03
28305;BMP280;15569;42.652;23.040;2024-03-22T02:24:02;92996.88;;;5.06
28305;BMP280;15569;42.652;23.040;2024-03-22T02:26:28;92996.88;;;5.06
28305;BMP280;15569;42.652;23.040;2024-03-22T02:28:53;93006.22;;;5.05
28305;BMP280;15569;42.652;23.040;2024-03-22T02:31:19;93007.22;;;5.00
28305;BMP280;15569;42.652;23.040;2024-03-22T02:33:45;92996.22;;;4.78
28305;BMP280;15569;42.652;23.040;2024-03-22T02:36:11;92995.25;;;4.84
28305;BMP280;15569;42.652;23.040;2024-03-22T02:38:36;93011.25;;;4.82
28305;BMP280;15569;42.652;23.040;2024-03-22T02:41:01;93012.22;;;4.76
28305;BMP280;15569;42.652;23.040;2024-03-22T02:43:27;93005.59;;;4.78
28305;BMP280;15569;42.652;23.040;2024-03-22T02:45:52;93012.94;;;4.77
28305;BMP280;15569;42.652;23.040;2024-03-22T02:48:17;93008.81;;;4.76
28305;BMP280;15569;42.652;23.040;2024-03-22T02:50:43;93010.66;;;4.73
28305;BMP280;15569;42.652;23.040;2024-03-22T02:53:08;93000.00;;;4.66
28305;BMP280;15569;42.652;23.040;2024-03-22T02:55:40;93015.47;;;4.65
28305;BMP280;15569;42.652;23.040;2024-03-22T02:58:06;93015.06;;;4.78
28305;BMP280;15569;42.652;23.040;2024-03-22T03:00:38;93018.06;;;4.83
28305;BMP280;15569;42.652;23.040;2024-03-22T03:03:05;93028.53;;;4.78
28305;BMP280;15569;42.652;23.040;2024-03-22T03:05:30;93025.78;;;4.59
28305;BMP280;15569;42.652;23.040;2024-03-22T03:07:56;93021.88;;;4.43
28305;BMP280;15569;42.652;23.040;2024-03-22T03:10:21;93020.91;;;4.48
28305;BMP280;15569;42.652;23.040;2024-03-22T03:12:47;93030.00;;;4.53
28305;BMP280;15569;42.652;23.040;2024-03-22T03:15:12;93025.13;;;4.42
28305;BMP280;15569;42.652;23.040;2024-03-22T03:17:37;93022.97;;;4.40
28305;BMP280;15569;42.652;23.040;2024-03-22T03:20:04;93019.69;;;4.32
28305;BMP280;15569;42.652;23.040;2024-03-22T03:22:33;93029.94;;;4.43
28305;BMP280;15569;42.652;23.040;2024-03-22T03:24:59;93028.94;;;4.39
28305;BMP280;15569;42.652;23.040;2024-03-22T03:27:25;93031.31;;;4.35
28305;BMP280;15569;42.652;23.040;2024-03-22T03:29:50;93031.31;;;4.35
28305;BMP280;15569;42.652;23.040;2024-03-22T03:32:15;93032.16;;;4.37
28305;BMP280;15569;42.652;23.040;2024-03-22T03:34:41;93033.75;;;4.40
28305;BMP280;15569;42.652;23.040;2024-03-22T03:37:06;93029.31;;;4.35
28305;BMP280;15569;42.652;23.040;2024-03-22T03:39:31;93031.63;;;4.39
28305;BMP280;15569;42.652;23.040;2024-03-22T03:41:57;93032.13;;;4.28
28305;BMP280;15569;42.652;23.040;2024-03-22T03:44:22;93036.78;;;4.27
28305;BMP280;15569;42.652;23.040;2024-03-22T03:46:47;93039.72;;;4.22
28305;BMP280;15569;42.652;23.040;2024-03-22T03:49:13;93033.94;;;4.25
28305;BMP280;15569;42.652;23.040;2024-03-22T03:51:38;93048.34;;;4.20
28305;BMP280;15569;42.652;23.040;2024-03-22T03:54:04;93037.16;;;3.97
28305;BMP280;15569;42.652;23.040;2024-03-22T03:56:29;93043.16;;;4.05
28305;BMP280;15569;42.652;23.040;2024-03-22T03:58:55;93044.75;;;4.08
28305;BMP280;15569;42.652;23.040;2024-03-22T04:01:21;93050.38;;;4.02
28305;BMP280;15569;42.652;23.040;2024-03-22T04:03:48;93050.66;;;4.06
28305;BMP280;15569;42.652;23.040;2024-03-22T04:06:14;93058.34;;;4.10
28305;BMP280;15569;42.652;23.040;2024-03-22T04:08:39;93064.03;;;3.97
28305;BMP280;15569;42.652;23.040;2024-03-22T04:11:04;93067.03;;;4.01
28305;BMP280;15569;42.652;23.040;2024-03-22T04:13:30;93066.88;;;4.16
28305;BMP280;15569;42.652;23.040;2024-03-22T04:15:58;93060.50;;;4.11
28305;BMP280;15569;42.652;23.040;2024-03-22T04:18:24;93063.38;;;4.23
28305;BMP280;15569;42.652;23.040;2024-03-22T04:21:00;93055.94;;;4.14
28305;BMP280;15569;42.652;23.040;2024-03-22T04:23:26;93058.22;;;3.91
28305;BMP280;15569;42.652;23.040;2024-03-22T04:25:58;93080.00;;;3.95
28305;BMP280;15569;42.652;23.040;2024-03-22T04:28:25;93064.44;;;3.93
28305;BMP280;15569;42.652;23.040;2024-03-22T04:31:00;93069.72;;;4.01
28305;BMP280;15569;42.652;23.040;2024-03-22T04:33:27;93073.84;;;4.02
28305;BMP280;15569;42.652;23.040;2024-03-22T04:35:53;93085.44;;;4.22
28305;BMP280;15569;42.652;23.040;2024-03-22T04:38:19;93074.53;;;4.20
28305;BMP280;15569;42.652;23.040;2024-03-22T04:40:44;93076.66;;;4.21
28305;BMP280;15569;42.652;23.040;2024-03-22T04:43:10;93087.06;;;4.07
28305;BMP280;15569;42.652;23.040;2024-03-22T04:45:35;93090.53;;;4.18
28305;BMP280;15569;42.652;23.040;2024-03-22T04:48:03;93091.00;;;4.06
28305;BMP280;15569;42.652;23.040;2024-03-22T04:50:28;93093.63;;;4.14
28305;BMP280;15569;42.652;23.040;2024-03-22T04:52:54;93088.09;;;4.12
28305;BMP280;15569;42.652;23.040;2024-03-22T04:55:20;93092.81;;;4.21
28305;BMP280;15569;42.652;23.040;2024-03-22T04:57:45;93093.28;;;4.27
28305;BMP280;15569;42.652;23.040;2024-03-22T05:00:11;93094.06;;;4.37
28305;BMP280;15569;42.652;23.040;2024-03-22T05:02:36;93084.34;;;4.42
28305;BMP280;15569;42.652;23.040;2024-03-22T05:05:02;93084.78;;;4.48
28305;BMP280;15569;42.652;23.040;2024-03-22T05:07:27;93091.97;;;4.62
28305;BMP280;15569;42.652;23.040;2024-03-22T05:09:53;93092.63;;;4.80
28305;BMP280;15569;42.652;23.040;2024-03-22T05:12:18;93095.59;;;4.84
28305;BMP280;15569;42.652;23.040;2024-03-22T05:14:43;93094.66;;;4.99
28305;BMP280;15569;42.652;23.040;2024-03-22T05:17:09;93104.31;;;5.02
28305;BMP280;15569;42.652;23.040;2024-03-22T05:19:34;93104.22;;;5.09
28305;BMP280;15569;42.652;23.040;2024-03-22T05:22:00;93100.22;;;5.37
28305;BMP280;15569;42.652;23.040;2024-03-22T05:24:25;93103.94;;;5.61
28305;BMP280;15569;42.652;23.040;2024-03-22T05:26:53;93098.97;;;5.76
28305;BMP280;15569;42.652;23.040;2024-03-22T05:29:19;93106.53;;;5.87
28305;BMP280;15569;42.652;23.040;2024-03-22T05:31:48;93106.25;;;5.93
28305;BMP280;15569;42.652;23.040;2024-03-22T05:34:15;93103.28;;;5.98
28305;BMP280;15569;42.652;23.040;2024-03-22T05:36:41;93102.41;;;5.96
28305;BMP280;15569;42.652;23.040;2024-03-22T05:39:07;93113.06;;;6.23
28305;BMP280;15569;42.652;23.040;2024-03-22T05:41:32;93105.22;;;6.36
28305;BMP280;15569;42.652;23.040;2024-03-22T05:43:57;93105.81;;;6.35
28305;BMP280;15569;42.652;23.040;2024-03-22T05:46:23;93068.84;;;6.28
28305;BMP280;15569;42.652;23.040;2024-03-22T05:48:51;93110.22;;;6.90
28305;BMP280;15569;42.652;23.040;2024-03-22T05:51:17;93109.69;;;7.22
28305;BMP280;15569;42.652;23.040;2024-03-22T05:53:43;93113.69;;;7.42
28305;BMP280;15569;42.652;23.040;2024-03-22T05:56:08;93110.75;;;7.59
28305;BMP280;15569;42.652;23.040;2024-03-22T05:58:34;93117.25;;;7.87
28305;BMP280;15569;42.652;23.040;2024-03-22T06:01:01;93120.00;;;7.98
28305;BMP280;15569;42.652;23.040;2024-03-22T06:03:26;93096.75;;;8.05
28305;BMP280;15569;42.652;23.040;2024-03-22T06:05:52;93116.16;;;8.34
28305;BMP280;15569;42.652;23.040;2024-03-22T06:08:20;93117.63;;;8.58
28305;BMP280;15569;42.652;23.040;2024-03-22T06:10:46;93118.72;;;8.76
28305;BMP280;15569;42.652;23.040;2024-03-22T06:13:11;93121.44;;;8.88
28305;BMP280;15569;42.652;23.040;2024-03-22T06:15:37;93110.63;;;9.00
28305;BMP280;15569;42.652;23.040;2024-03-22T06:18:02;93117.09;;;9.18
28305;BMP280;15569;42.652;23.040;2024-03-22T06:20:27;93114.88;;;9.03
28305;BMP280;15569;42.652;23.040;2024-03-22T06:22:53;93118.75;;;9.00
28305;BMP280;15569;42.652;23.040;2024-03-22T06:25:18;93120.63;;;8.97
28305;BMP280;15569;42.652;23.040;2024-03-22T06:27:43;93121.13;;;8.94
28305;BMP280;15569;42.652;23.040;2024-03-22T06:30:09;93119.47;;;9.00
28305;BMP280;15569;42.652;23.040;2024-03-22T06:32:35;93126.53;;;9.05
28305;BMP280;15569;42.652;23.040;2024-03-22T06:35:00;93122.41;;;9.16
28305;BMP280;15569;42.652;23.040;2024-03-22T06:37:26;93121.34;;;9.32
28305;BMP280;15569;42.652;23.040;2024-03-22T06:39:51;93125.56;;;9.47
28305;BMP280;15569;42.652;23.040;2024-03-22T06:42:19;93133.59;;;9.45
28305;BMP280;15569;42.652;23.040;2024-03-22T06:44:44;93125.38;;;9.80
28305;BMP280;15569;42.652;23.040;2024-03-22T06:47:10;93132.66;;;10.00
28305;BMP280;15569;42.652;23.040;2024-03-22T06:49:35;93136.53;;;10.09
28305;BMP280;15569;42.652;23.040;2024-03-22T06:52:01;93131.44;;;10.03
28305;BMP280;15569;42.652;23.040;2024-03-22T06:54:26;93142.78;;;10.37
28305;BMP280;15569;42.652;23.040;2024-03-22T06:56:52;93144.59;;;10.71
28305;BMP280;15569;42.652;23.040;2024-03-22T06:59:17;93145.56;;;10.50
28305;BMP280;15569;42.652;23.040;2024-03-22T07:01:43;93145.19;;;10.56
28305;BMP280;15569;42.652;23.040;2024-03-22T07:04:08;93148.28;;;10.50
28305;BMP280;15569;42.652;23.040;2024-03-22T07:06:34;93155.50;;;10.46
28305;BMP280;15569;42.652;23.040;2024-03-22T07:08:59;93153.34;;;10.56
28305;BMP280;15569;42.652;23.040;2024-03-22T07:11:25;93153.91;;;10.79
28305;BMP280;15569;42.652;23.040;2024-03-22T07:13:50;93148.06;;;10.85
28305;BMP280;15569;42.652;23.040;2024-03-22T07:16:15;93148.25;;;10.75
28305;BMP280;15569;42.652;23.040;2024-03-22T07:18:41;93153.84;;;10.91
28305;BMP280;15569;42.652;23.040;2024-03-22T07:21:07;93146.56;;;10.82
28305;BMP280;15569;42.652;23.040;2024-03-22T07:23:32;93148.50;;;11.06
28305;BMP280;15569;42.652;23.040;2024-03-22T07:25:57;93150.06;;;11.23
28305;BMP280;15569;42.652;23.040;2024-03-22T07:28:24;93157.28;;;11.19
28305;BMP280;15569;42.652;23.040;2024-03-22T07:30:50;93155.41;;;11.21
28305;BMP280;15569;42.652;23.040;2024-03-22T07:33:15;93143.91;;;11.23
28305;BMP280;15569;42.652;23.040;2024-03-22T07:35:43;93151.88;;;11.32
28305;BMP280;15569;42.652;23.040;2024-03-22T07:38:10;93152.19;;;11.38
28305;BMP280;15569;42.652;23.040;2024-03-22T07:40:35;93154.28;;;11.53
28305;BMP280;15569;42.652;23.040;2024-03-22T07:43:01;93150.22;;;11.54
28305;BMP280;15569;42.652;23.040;2024-03-22T07:45:34;93161.13;;;11.54
28305;BMP280;15569;42.652;23.040;2024-03-22T07:48:00;93155.50;;;11.37
28305;BMP280;15569;42.652;23.040;2024-03-22T07:50:25;93160.94;;;11.23
28305;BMP280;15569;42.652;23.040;2024-03-22T07:52:50;93154.28;;;11.53
28305;BMP280;15569;42.652;23.040;2024-03-22T07:55:16;93157.94;;;11.44
28305;BMP280;15569;42.652;23.040;2024-03-22T07:57:42;93159.72;;;11.53
28305;BMP280;15569;42.652;23.040;2024-03-22T08:00:07;93158.91;;;11.78
28305;BMP280;15569;42.652;23.040;2024-03-22T08:02:33;93154.72;;;11.91
28305;BMP280;15569;42.652;23.040;2024-03-22T08:04:58;93162.06;;;11.45
28305;BMP280;15569;42.652;23.040;2024-03-22T08:07:24;93158.50;;;11.70
28305;BMP280;15569;42.652;23.040;2024-03-22T08:09:49;93168.09;;;11.71
28305;BMP280;15569;42.652;23.040;2024-03-22T08:12:15;93174.09;;;11.97
28305;BMP280;15569;42.652;23.040;2024-03-22T08:14:40;93170.88;;;12.00
28305;BMP280;15569;42.652;23.040;2024-03-22T08:17:07;93168.50;;;12.22
28305;BMP280;15569;42.652;23.040;2024-03-22T08:19:34;93170.09;;;12.27
28305;BMP280;15569;42.652;23.040;2024-03-22T08:22:00;93176.16;;;12.25
28305;BMP280;15569;42.652;23.040;2024-03-22T08:24:25;93174.97;;;12.44
28305;BMP280;15569;42.652;23.040;2024-03-22T08:26:50;93172.41;;;12.77
28305;BMP280;15569;42.652;23.040;2024-03-22T08:29:16;93165.28;;;12.70
28305;BMP280;15569;42.652;23.040;2024-03-22T08:31:41;93167.72;;;12.80
28305;BMP280;15569;42.652;23.040;2024-03-22T08:34:08;93173.75;;;12.92
28305;BMP280;15569;42.652;23.040;2024-03-22T08:36:33;93167.25;;;12.54
28305;BMP280;15569;42.652;23.040;2024-03-22T08:38:59;93165.56;;;12.76
28305;BMP280;15569;42.652;23.040;2024-03-22T08:41:24;93171.00;;;12.92
28305;BMP280;15569;42.652;23.040;2024-03-22T08:43:49;93174.50;;;12.94
28305;BMP280;15569;42.652;23.040;2024-03-22T08:46:15;93173.94;;;13.11
28305;BMP280;15569;42.652;23.040;2024-03-22T08:48:41;93174.91;;;13.18
28305;BMP280;15569;42.652;23.040;2024-03-22T08:51:06;93173.13;;;13.24
28305;BMP280;15569;42.652;23.040;2024-03-22T08:53:32;93181.31;;;13.09
28305;BMP280;15569;42.652;23.040;2024-03-22T08:55:57;93180.25;;;13.16
28305;BMP280;15569;42.652;23.040;2024-03-22T08:58:23;93169.41;;;13.33
28305;BMP280;15569;42.652;23.040;2024-03-22T09:00:49;93174.50;;;13.57
28305;BMP280;15569;42.652;23.040;2024-03-22T09:03:14;93170.63;;;13.62
28305;BMP280;15569;42.652;23.040;2024-03-22T09:05:40;93168.38;;;13.74
28305;BMP280;15569;42.652;23.040;2024-03-22T09:08:06;93177.81;;;13.71
28305;BMP280;15569;42.652;23.040;2024-03-22T09:10:32;93162.72;;;13.70
28305;BMP280;15569;42.652;23.040;2024-03-22T09:12:57;93167.88;;;13.95
28305;BMP280;15569;42.652;23.040;2024-03-22T09:15:23;93162.00;;;14.20
28305;BMP280;15569;42.652;23.040;2024-03-22T09:17:49;93168.50;;;14.11
28305;BMP280;15569;42.652;23.040;2024-03-22T09:20:15;93160.22;;;14.26
28305;BMP280;15569;42.652;23.040;2024-03-22T09:22:40;93166.00;;;14.34
28305;BMP280;15569;42.652;23.040;2024-03-22T09:25:06;93160.63;;;14.19
28305;BMP280;15569;42.652;23.040;2024-03-22T09:27:32;93152.50;;;14.21
28305;BMP280;15569;42.652;23.040;2024-03-22T09:29:58;93154.41;;;14.54
28305;BMP280;15569;42.652;23.040;2024-03-22T09:32:23;93149.69;;;14.74
28305;BMP280;15569;42.652;23.040;2024-03-22T09:34:49;93152.41;;;14.91
28305;BMP280;15569;42.652;23.040;2024-03-22T09:37:17;93159.78;;;14.87
28305;BMP280;15569;42.652;23.040;2024-03-22T09:39:43;93152.91;;;15.05
28305;BMP280;15569;42.652;23.040;2024-03-22T09:42:13;93154.19;;;15.02
28305;BMP280;15569;42.652;23.040;2024-03-22T09:44:44;93153.09;;;15.11
28305;BMP280;15569;42.652;23.040;2024-03-22T09:47:12;93148.47;;;15.36
28305;BMP280;15569;42.652;23.040;2024-03-22T09:49:39;93141.25;;;15.24
28305;BMP280;15569;42.652;23.040;2024-03-22T09:52:06;93148.16;;;14.88
28305;BMP280;15569;42.652;23.040;2024-03-22T09:54:32;93146.25;;;15.10
28305;BMP280;15569;42.652;23.040;2024-03-22T09:56:58;93138.66;;;15.09
28305;BMP280;15569;42.652;23.040;2024-03-22T09:59:24;93142.09;;;15.09
28305;BMP280;15569;42.652;23.040;2024-03-22T10:01:50;93148.22;;;15.47
28305;BMP280;15569;42.652;23.040;2024-03-22T10:04:17;93141.25;;;15.24
28305;BMP280;15569;42.652;23.040;2024-03-22T10:06:45;93130.28;;;15.85
28305;BMP280;15569;42.652;23.040;2024-03-22T10:09:11;93120.19;;;15.29
28305;BMP280;15569;42.652;23.040;2024-03-22T10:11:37;93129.19;;;14.92
28305;BMP280;15569;42.652;23.040;2024-03-22T10:14:02;93135.47;;;15.56
28305;BMP280;15569;42.652;23.040;2024-03-22T10:16:33;93130.50;;;15.31
28305;BMP280;15569;42.652;23.040;2024-03-22T10:18:59;93129.44;;;15.40
28305;BMP280;15569;42.652;23.040;2024-03-22T10:21:24;93130.19;;;15.83
28305;BMP280;15569;42.652;23.040;2024-03-22T10:23:50;93121.63;;;16.16
28305;BMP280;15569;42.652;23.040;2024-03-22T10:26:17;93119.34;;;16.09
28305;BMP280;15569;42.652;23.040;2024-03-22T10:28:46;93122.28;;;15.31
28305;BMP280;15569;42.652;23.040;2024-03-22T10:31:14;93130.75;;;15.58
28305;BMP280;15569;42.652;23.040;2024-03-22T10:33:40;93116.66;;;16.11
28305;BMP280;15569;42.652;23.040;2024-03-22T10:36:07;93114.63;;;15.90
28305;BMP280;15569;42.652;23.040;2024-03-22T10:38:33;93102.84;;;15.85
28305;BMP280;15569;42.652;23.040;2024-03-22T10:41:00;93114.84;;;15.96
28305;BMP280;15569;42.652;23.040;2024-03-22T10:43:25;93101.22;;;16.21
28305;BMP280;15569;42.652;23.040;2024-03-22T10:45:51;93106.38;;;16.57
28305;BMP280;15569;42.652;23.040;2024-03-22T10:48:19;93098.50;;;16.69
28305;BMP280;15569;42.652;23.040;2024-03-22T10:50:47;93101.41;;;16.75
28305;BMP280;15569;42.652;23.040;2024-03-22T10:53:18;93090.44;;;17.00
28305;BMP280;15569;42.652;23.040;2024-03-22T10:55:47;93081.38;;;16.47
28305;BMP280;15569;42.652;23.040;2024-03-22T10:58:15;93086.97;;;16.03
28305;BMP280;15569;42.652;23.040;2024-03-22T11:00:42;93095.75;;;16.94
28305;BMP280;15569;42.652;23.040;2024-03-22T11:03:08;93085.88;;;17.37
28305;BMP280;15569;42.652;23.040;2024-03-22T11:05:34;93081.47;;;17.53
28305;BMP280;15569;42.652;23.040;2024-03-22T11:08:04;93076.47;;;17.18
28305;BMP280;15569;42.652;23.040;2024-03-22T11:10:30;93082.94;;;16.77
28305;BMP280;15569;42.652;23.040;2024-03-22T11:13:03;93076.88;;;17.34
28305;BMP280;15569;42.652;23.040;2024-03-22T11:15:30;93060.91;;;17.86
28305;BMP280;15569;42.652;23.040;2024-03-22T11:17:56;93064.41;;;17.03
28305;BMP280;15569;42.652;23.040;2024-03-22T11:20:21;93074.81;;;17.35
28305;BMP280;15569;42.652;23.040;2024-03-22T11:22:47;93077.44;;;17.29
28305;BMP280;15569;42.652;23.040;2024-03-22T11:25:12;93066.19;;;17.18
28305;BMP280;15569;42.652;23.040;2024-03-22T11:27:38;93077.78;;;16.89
28305;BMP280;15569;42.652;23.040;2024-03-22T11:30:04;93069.25;;;17.90
28305;BMP280;15569;42.652;23.040;2024-03-22T11:32:30;93071.19;;;18.47
28305;BMP280;15569;42.652;23.040;2024-03-22T11:34:55;93065.81;;;18.88
28305;BMP280;15569;42.652;23.040;2024-03-22T11:37:21;93066.97;;;18.77
28305;BMP280;15569;42.652;23.040;2024-03-22T11:39:47;93062.22;;;18.80
28305;BMP280;15569;42.652;23.040;2024-03-22T11:42:13;93057.97;;;19.12
28305;BMP280;15569;42.652;23.040;2024-03-22T11:44:39;93053.59;;;18.28
28305;BMP280;15569;42.652;23.040;2024-03-22T11:47:05;93057.91;;;18.37
28305;BMP280;15569;42.652;23.040;2024-03-22T11:49:31;93053.06;;;18.02
28305;BMP280;15569;42.652;23.040;2024-03-22T11:51:56;93055.72;;;18.30
28305;BMP280;15569;42.652;23.040;2024-03-22T11:54:22;93045.03;;;18.83
28305;BMP280;15569;42.652;23.040;2024-03-22T11:56:48;93034.53;;;19.53
28305;BMP280;15569;42.652;23.040;2024-03-22T11:59:14;93035.88;;;19.10
28305;BMP280;15569;42.652;23.040;2024-03-22T12:01:40;93035.00;;;19.85
28305;BMP280;15569;42.652;23.040;2024-03-22T12:04:06;93033.81;;;19.53
28305;BMP280;15569;42.652;23.040;2024-03-22T12:06:35;93027.00;;;18.39
28305;BMP280;15569;42.652;23.040;2024-03-22T12:09:01;93033.63;;;18.63
28305;BMP280;15569;42.652;23.040;2024-03-22T12:11:26;93020.13;;;18.75
28305;BMP280;15569;42.652;23.040;2024-03-22T12:13:51;93020.94;;;18.46
28305;BMP280;15569;42.652;23.040;2024-03-22T12:16:17;93018.00;;;17.13
28305;BMP280;15569;42.652;23.040;2024-03-22T12:18:42;93012.53;;;17.73
28305;BMP280;15569;42.652;23.040;2024-03-22T12:21:08;93008.22;;;17.66
28305;BMP280;15569;42.652;23.040;2024-03-22T12:23:33;93014.94;;;17.59
28305;BMP280;15569;42.652;23.040;2024-03-22T12:25:58;93019.06;;;18.57
28305;BMP280;15569;42.652;23.040;2024-03-22T12:28:24;93018.19;;;19.23
28305;BMP280;15569;42.652;23.040;2024-03-22T12:30:49;93003.63;;;19.19
28305;BMP280;15569;42.652;23.040;2024-03-22T12:33:15;93005.59;;;20.04
28305;BMP280;15569;42.652;23.040;2024-03-22T12:35:40;93003.56;;;20.68
28305;BMP280;15569;42.652;23.040;2024-03-22T12:38:07;92997.91;;;20.52
28305;BMP280;15569;42.652;23.040;2024-03-22T12:40:34;92990.06;;;20.98
28305;BMP280;15569;42.652;23.040;2024-03-22T12:42:59;92989.94;;;20.84
28305;BMP280;15569;42.652;23.040;2024-03-22T12:45:25;92991.75;;;21.39
28305;BMP280;15569;42.652;23.040;2024-03-22T12:47:51;92984.53;;;21.00
28305;BMP280;15569;42.652;23.040;2024-03-22T12:50:16;92977.84;;;20.50
28305;BMP280;15569;42.652;23.040;2024-03-22T12:52:41;92980.69;;;20.60
28305;BMP280;15569;42.652;23.040;2024-03-22T12:55:09;92989.28;;;21.86
28305;BMP280;15569;42.652;23.040;2024-03-22T12:57:35;92979.88;;;21.23
28305;BMP280;15569;42.652;23.040;2024-03-22T13:00:00;92984.22;;;20.66
28305;BMP280;15569;42.652;23.040;2024-03-22T13:02:26;92971.81;;;20.71
28305;BMP280;15569;42.652;23.040;2024-03-22T13:04:52;92976.34;;;19.83
28305;BMP280;15569;42.652;23.040;2024-03-22T13:07:19;92982.88;;;19.58
28305;BMP280;15569;42.652;23.040;2024-03-22T13:09:45;92974.50;;;19.50
28305;BMP280;15569;42.652;23.040;2024-03-22T13:12:10;92966.38;;;19.14
28305;BMP280;15569;42.652;23.040;2024-03-22T13:14:35;92986.47;;;18.81
28305;BMP280;15569;42.652;23.040;2024-03-22T13:17:01;92967.97;;;18.48
28305;BMP280;15569;42.652;23.040;2024-03-22T13:19:27;92974.00;;;18.40
28305;BMP280;15569;42.652;23.040;2024-03-22T13:21:52;92986.06;;;18.23
28305;BMP280;15569;42.652;23.040;2024-03-22T13:24:17;92970.53;;;18.02
28305;BMP280;15569;42.652;23.040;2024-03-22T13:26:44;92972.59;;;18.03
28305;BMP280;15569;42.652;23.040;2024-03-22T13:29:09;92974.75;;;18.43
28305;BMP280;15569;42.652;23.040;2024-03-22T13:31:35;92966.09;;;18.58
28305;BMP280;15569;42.652;23.040;2024-03-22T13:34:00;92972.00;;;18.43
28305;BMP280;15569;42.652;23.040;2024-03-22T13:36:26;92969.56;;;18.59
28305;BMP280;15569;42.652;23.040;2024-03-22T13:38:51;92966.88;;;20.58
28305;BMP280;15569;42.652;23.040;2024-03-22T13:41:17;92954.72;;;20.21
28305;BMP280;15569;42.652;23.040;2024-03-22T13:43:42;92950.00;;;21.01
28305;BMP280;15569;42.652;23.040;2024-03-22T13:46:09;92950.16;;;20.46
28305;BMP280;15569;42.652;23.040;2024-03-22T13:48:37;92951.69;;;21.38
28305;BMP280;15569;42.652;23.040;2024-03-22T13:51:04;92950.03;;;22.39
28305;BMP280;15569;42.652;23.040;2024-03-22T13:53:29;92954.25;;;23.03